< < Back
Terminal Aerodrome Forecast


Current Version              Previous Versions:   1  2  3  4  5  6  7  8  9  

Terminal Aerodrome Forecast

903
FTUS42 KILM 250500
TAFILM
TAF
KILM 250538Z 2506/2606 14004KT P6SM SCT040 SCT250
     FM251000 14003KT P6SM VCSH SCT025 BKN040
      TEMPO 2510/2514 BKN020
     FM251400 18010G18KT P6SM VCSH SCT015 BKN035
     FM252100 20015G25KT 5SM -SHRA BKN020 BKN040
     FM252300 21012G22KT P6SM VCSH SCT020 BKN050
     FM260200 23007KT P6SM SCT020 BKN050=



Latest METAR

718
SAUS70 KWBC 250700 RRF
MTRILM
METAR KILM 250653Z AUTO 00000KT 9SM CLR 14/13 A2997 RMK AO2 SLP149
T01440128


USA.gov is the U.S. government's official web portal to all federal, state and local government web resources and services.